Time;durP1;ratioP1;P1;durP2;ratioP2;P2;SDS_P1;SDS_P2;PMS_P1;PMS_P2;Temp;Humidity;BMP_temperature;BMP_pressure;BME280_temperature;BME280_humidity;BME280_pressure;Samples;Min_cycle;Max_cycle;Signal;HPM_P1;HPM_P2
2021/05/17 00:00:34;;;;;;;1.63;0.87;;;;;;;14.77;56.08;96672.34;8285222;28;20209;-64
2021/05/17 00:04:36;;;;;;;1.93;0.80;;;;;;;14.80;55.74;96670.31;8285773;28;20233;-64
2021/05/17 00:08:40;;;;;;;1.33;0.70;;;;;;;14.80;55.79;96669.50;8286296;28;20229;-64
2021/05/17 00:12:43;;;;;;;2.73;0.90;;;;;;;14.76;56.15;96671.53;8285834;28;20206;-64
2021/05/17 00:16:46;;;;;;;1.00;0.80;;;;;;;14.70;56.36;96672.03;8285362;28;20210;-64
2021/05/17 00:20:49;;;;;;;2.50;0.80;;;;;;;14.69;56.63;96674.75;8285396;28;20221;-64
2021/05/17 00:24:53;;;;;;;2.47;0.80;;;;;;;14.70;56.99;96672.03;8285661;28;20225;-64
2021/05/17 00:28:56;;;;;;;3.50;1.00;;;;;;;14.66;56.72;96674.06;8285252;28;20209;-64
2021/05/17 00:33:01;;;;;;;3.80;1.00;;;;;;;14.63;56.87;96669.09;8285594;28;20516;-64
2021/05/17 00:37:03;;;;;;;3.37;0.80;;;;;;;14.62;56.72;96666.59;8285066;28;20304;-64
2021/05/17 00:41:08;;;;;;;1.40;0.73;;;;;;;14.58;56.88;96668.66;8285160;28;20210;-64
2021/05/17 00:45:12;;;;;;;1.57;0.80;;;;;;;14.58;56.68;96671.25;8284887;28;20233;-64
2021/05/17 00:49:15;;;;;;;0.93;0.60;;;;;;;14.50;57.07;96672.78;8284966;28;20379;-64
2021/05/17 00:53:17;;;;;;;1.37;0.63;;;;;;;14.42;57.23;96676.81;8285068;28;20217;-64
2021/05/17 00:57:21;;;;;;;1.57;0.70;;;;;;;14.58;56.92;96684.28;8284781;28;20208;-64
2021/05/17 01:01:23;;;;;;;2.67;0.90;;;;;;;14.36;57.69;96681.72;8284972;28;20391;-64
2021/05/17 01:05:26;;;;;;;2.97;0.70;;;;;;;14.50;57.00;96688.41;8284652;28;20244;-64
2021/05/17 01:09:30;;;;;;;1.80;0.60;;;;;;;14.49;57.03;96692.81;8283396;28;20236;-64
2021/05/17 01:13:33;;;;;;;2.03;0.70;;;;;;;14.45;56.68;96686.19;8282978;28;20205;-64
2021/05/17 01:17:35;;;;;;;1.37;0.60;;;;;;;14.39;56.72;96686.66;8282819;28;20209;-64
2021/05/17 01:21:40;;;;;;;0.70;0.50;;;;;;;14.38;56.79;96685.03;8282767;28;20207;-64
2021/05/17 01:25:44;;;;;;;0.83;0.57;;;;;;;14.39;56.46;96686.66;8282936;28;20225;-64
2021/05/17 01:29:47;;;;;;;2.87;0.60;;;;;;;14.43;56.28;96686.31;8285745;28;20389;-64
2021/05/17 01:33:50;;;;;;;1.60;0.67;;;;;;;14.37;56.36;96678.16;8288337;28;20213;-64
2021/05/17 01:37:52;;;;;;;0.53;0.40;;;;;;;14.34;56.29;96679.22;8288398;28;20394;-64
2021/05/17 01:41:56;;;;;;;0.77;0.40;;;;;;;14.34;56.51;96678.41;8288252;28;20201;-64
2021/05/17 01:46:00;;;;;;;1.63;0.60;;;;;;;14.40;56.21;96681.34;8288299;28;20317;-64
2021/05/17 01:50:04;;;;;;;0.97;0.53;;;;;;;14.39;56.21;96677.09;8288401;28;20202;-64
2021/05/17 01:54:10;;;;;;;0.67;0.50;;;;;;;14.35;56.66;96688.69;8288053;28;20391;-64
2021/05/17 01:58:19;;;;;;;1.37;0.60;;;;;;;14.33;56.24;96687.97;8287770;28;20208;-64
2021/05/17 02:02:22;;;;;;;1.43;0.57;;;;;;;14.29;56.37;96691.78;8287981;28;20208;-64
2021/05/17 02:06:25;;;;;;;1.63;0.53;;;;;;;14.18;56.14;96690.03;8265375;28;647646;-64
2021/05/17 02:10:27;;;;;;;2.13;0.70;;;;;;;14.13;56.13;96691.38;8289631;28;20471;-64
2021/05/17 02:14:31;;;;;;;2.50;0.60;;;;;;;14.12;55.90;96693.13;8289563;28;20277;-64
2021/05/17 02:18:36;;;;;;;1.67;0.73;;;;;;;14.08;55.88;96697.72;8289555;28;20221;-64
2021/05/17 02:22:41;;;;;;;1.43;0.70;;;;;;;14.04;55.76;96693.72;8289467;28;20201;-64
2021/05/17 02:26:44;;;;;;;0.77;0.50;;;;;;;14.12;55.56;96694.91;8289094;28;20229;-64
2021/05/17 02:30:47;;;;;;;1.03;0.40;;;;;;;13.88;55.99;96690.69;8289058;28;20213;-64
2021/05/17 02:34:51;;;;;;;1.53;0.60;;;;;;;13.85;55.93;96698.72;8289228;28;20387;-64
2021/05/17 02:38:53;;;;;;;1.83;0.60;;;;;;;13.89;56.01;96700.94;8288178;28;20202;-64
2021/05/17 02:43:00;;;;;;;1.33;0.77;;;;;;;13.91;55.75;96705.22;8288848;28;20505;-64
2021/05/17 02:47:04;;;;;;;2.07;0.90;;;;;;;14.00;55.83;96710.53;8288456;28;20414;-64
2021/05/17 02:51:09;;;;;;;1.87;0.83;;;;;;;13.92;55.89;96705.09;8288474;28;20465;-64
2021/05/17 02:55:13;;;;;;;2.00;0.77;;;;;;;13.94;55.96;96702.38;8288258;28;20368;-64
2021/05/17 02:59:22;;;;;;;2.23;0.90;;;;;;;13.82;56.29;96707.59;8288447;28;20204;-64
2021/05/17 03:03:25;;;;;;;2.83;0.90;;;;;;;13.83;56.18;96718.81;8288299;28;20206;-64
2021/05/17 03:07:31;;;;;;;0.93;0.70;;;;;;;13.93;56.26;96711.13;8287837;28;20237;-64
2021/05/17 03:11:37;;;;;;;1.63;0.70;;;;;;;13.76;56.66;96717.63;8288126;28;20192;-64
2021/05/17 03:15:41;;;;;;;1.70;0.83;;;;;;;13.83;56.52;96717.03;8288110;28;20205;-65
2021/05/17 03:19:44;;;;;;;3.80;0.80;;;;;;;13.85;56.73;96719.53;8287393;28;20220;-64
2021/05/17 03:23:47;;;;;;;3.97;0.77;;;;;;;13.71;56.98;96727.56;8293818;28;20510;-64
2021/05/17 03:27:50;;;;;;;4.30;1.00;;;;;;;13.77;57.07;96732.31;8319119;28;20197;-64
2021/05/17 03:31:52;;;;;;;3.37;0.83;;;;;;;13.72;57.52;96732.66;8289813;28;20202;-64
2021/05/17 03:35:55;;;;;;;5.10;1.17;;;;;;;13.84;57.39;96731.72;8287275;28;20210;-64
2021/05/17 03:39:58;;;;;;;3.57;1.20;;;;;;;13.89;56.97;96733.97;8313774;28;20219;-64
2021/05/17 03:44:00;;;;;;;5.27;1.00;;;;;;;13.84;56.87;96733.47;8319448;28;20357;-64
2021/05/17 03:48:03;;;;;;;3.47;1.10;;;;;;;13.81;57.03;96734.53;8319386;28;20213;-64
2021/05/17 03:52:06;;;;;;;2.70;0.90;;;;;;;13.85;57.01;96733.38;8318243;28;20201;-64
2021/05/17 03:56:09;;;;;;;5.30;1.20;;;;;;;13.89;56.68;96739.16;8298888;28;20209;-64
2021/05/17 04:00:13;;;;;;;2.20;1.00;;;;;;;13.81;56.89;96742.34;8285585;28;20213;-64
2021/05/17 04:04:16;;;;;;;2.63;1.10;;;;;;;13.83;56.75;96740.47;8286318;28;20209;-64
2021/05/17 04:17:03;;;;;;;2.73;1.10;;;;;;;13.82;56.64;96751.84;8276823;28;20312;-64
2021/05/17 04:21:06;;;;;;;2.70;0.83;;;;;;;13.79;56.52;96764.25;8285648;28;20349;-64
2021/05/17 04:25:12;;;;;;;3.93;1.17;;;;;;;13.83;56.13;96756.06;8285686;28;20225;-65
2021/05/17 04:29:14;;;;;;;3.90;1.07;;;;;;;13.77;56.35;96763.53;8296302;28;20408;-65
2021/05/17 04:33:17;;;;;;;2.63;1.00;;;;;;;13.26;57.02;96765.53;8288718;28;20201;-64
2021/05/17 04:37:19;;;;;;;4.00;1.00;;;;;;;13.71;56.06;96767.44;8285787;28;20500;-63
2021/05/17 04:41:22;;;;;;;3.67;1.10;;;;;;;13.70;56.09;96778.78;8284879;28;20509;-64
2021/05/17 04:45:25;;;;;;;4.37;1.20;;;;;;;13.83;55.88;96791.69;8284791;28;20225;-64
2021/05/17 04:49:27;;;;;;;4.00;1.10;;;;;;;13.88;55.68;96794.78;8284789;28;20212;-64
2021/05/17 04:53:30;;;;;;;4.40;0.97;;;;;;;13.94;55.66;96796.91;8284488;28;20393;-64
2021/05/17 04:57:33;;;;;;;3.73;1.00;;;;;;;13.94;55.94;96793.47;8285058;28;20205;-64
2021/05/17 05:01:41;;;;;;;4.43;1.37;;;;;;;13.92;55.46;96800.53;8284676;28;20206;-64
2021/05/17 05:05:44;;;;;;;2.40;1.10;;;;;;;13.91;55.85;96798.91;8284348;28;20240;-64
2021/05/17 05:09:46;;;;;;;3.77;1.00;;;;;;;13.99;55.59;96807.78;8284914;28;20365;-64
2021/05/17 05:13:49;;;;;;;3.03;1.13;;;;;;;14.18;55.36;96801.16;8284862;28;20202;-64
2021/05/17 05:17:52;;;;;;;3.43;1.03;;;;;;;14.21;55.18;96814.75;8284442;28;20210;-64
2021/05/17 05:21:54;;;;;;;2.67;0.97;;;;;;;14.18;56.14;96822.81;8284030;28;20229;-64
2021/05/17 05:30:23;;;;;;;2.30;0.90;;;;;;;13.87;58.88;96830.34;8284159;28;20210;-64
2021/05/17 05:34:27;;;;;;;3.00;0.87;;;;;;;13.93;59.41;96831.66;8271678;28;20194;-64
2021/05/17 05:38:29;;;;;;;2.53;0.70;;;;;;;13.87;59.93;96832.13;8284077;28;20197;-64
2021/05/17 05:42:32;;;;;;;2.13;0.70;;;;;;;13.88;60.19;96828.59;8284264;28;20202;-64
2021/05/17 05:46:35;;;;;;;1.83;0.83;;;;;;;13.81;60.17;96835.22;8315935;28;20558;-64
2021/05/17 05:50:38;;;;;;;1.93;1.00;;;;;;;13.96;60.42;96830.63;8285604;28;20227;-64
2021/05/17 05:54:41;;;;;;;2.17;0.90;;;;;;;13.79;60.45;96831.91;8283839;28;20225;-64
2021/05/17 05:58:44;;;;;;;2.37;1.50;;;;;;;14.03;60.16;96832.63;8306070;28;20271;-64
2021/05/17 06:02:47;;;;;;;2.03;1.07;;;;;;;14.07;60.60;96831.47;8283530;28;20202;-64
2021/05/17 06:06:50;;;;;;;2.03;0.87;;;;;;;14.10;59.79;96837.38;8283300;28;20238;-64
2021/05/17 06:10:52;;;;;;;3.23;1.47;;;;;;;14.14;59.97;96842.22;8283282;28;20202;-65
2021/05/17 06:14:59;;;;;;;2.37;0.77;;;;;;;14.24;59.68;96845.78;8304509;28;20267;-64
2021/05/17 06:19:03;;;;;;;2.97;0.90;;;;;;;14.03;59.16;96853.47;8322228;28;20205;-64
2021/05/17 06:23:07;;;;;;;2.63;0.80;;;;;;;14.08;58.54;96853.91;8321701;28;20208;-64
2021/05/17 06:27:12;;;;;;;4.27;1.00;;;;;;;14.19;57.87;96865.31;8321889;28;20239;-64
2021/05/17 06:31:16;;;;;;;2.97;0.90;;;;;;;14.39;58.40;96861.16;8321466;28;20201;-64
2021/05/17 06:35:25;;;;;;;2.53;0.80;;;;;;;14.23;58.24;96864.94;8321496;28;20403;-64
2021/05/17 06:39:27;;;;;;;3.90;0.70;;;;;;;14.15;59.17;96863.88;8316851;28;20265;-65
2021/05/17 06:43:30;;;;;;;3.37;1.10;;;;;;;14.11;60.45;96878.91;8288061;28;20293;-64
2021/05/17 06:47:33;;;;;;;3.43;1.90;;;;;;;14.18;61.43;96881.88;8288112;28;20261;-64
2021/05/17 06:51:37;;;;;;;1.43;0.60;;;;;;;13.94;62.17;96884.56;8288654;28;20209;-64
2021/05/17 06:55:47;;;;;;;2.00;0.80;;;;;;;13.79;62.19;96882.16;8288505;28;20251;-64
2021/05/17 06:59:55;;;;;;;3.53;1.40;;;;;;;13.82;62.26;96888.88;8288395;28;20402;-65
2021/05/17 07:03:58;;;;;;;8.10;4.23;;;;;;;13.97;62.58;96884.31;8288106;28;20209;-65
2021/05/17 07:12:37;;;;;;;2.77;1.63;;;;;;;14.41;62.01;96890.50;8239053;28;20198;-64
2021/05/17 07:16:40;;;;;;;4.87;1.60;;;;;;;14.44;61.75;96892.91;8297416;28;20215;-64
2021/05/17 07:25:00;;;;;;;3.10;1.30;;;;;;;14.94;59.96;96898.56;8319811;28;20208;-64
2021/05/17 07:29:04;;;;;;;1.47;0.80;;;;;;;15.27;58.79;96891.63;8318585;28;20205;-64
2021/05/17 07:33:07;;;;;;;2.50;1.50;;;;;;;15.54;58.77;96899.00;8319862;28;20213;-64
2021/05/17 07:37:10;;;;;;;3.67;1.80;;;;;;;15.45;59.05;96891.91;8319832;28;20484;-65
2021/05/17 07:41:15;;;;;;;3.53;1.50;;;;;;;15.10;58.75;96894.72;8307130;28;20206;-66
2021/05/17 07:45:17;;;;;;;1.70;0.70;;;;;;;14.58;60.28;96908.34;8286765;28;20229;-65
2021/05/17 07:49:23;;;;;;;1.97;1.00;;;;;;;14.63;61.91;96910.56;8286972;28;20209;-66
2021/05/17 07:53:25;;;;;;;3.47;1.00;;;;;;;14.35;62.46;96911.81;8286196;28;20228;-66
2021/05/17 07:57:29;;;;;;;2.53;0.90;;;;;;;14.32;61.75;96919.88;8285335;28;20201;-66
2021/05/17 08:01:31;;;;;;;1.63;1.20;;;;;;;14.17;62.37;96933.13;8289632;28;20548;-64
2021/05/17 08:05:34;;;;;;;2.07;1.00;;;;;;;13.81;63.18;96927.09;8285439;28;20229;-65
2021/05/17 08:09:37;;;;;;;2.53;1.33;;;;;;;13.79;63.56;96933.38;8285454;28;20481;-66
2021/05/17 08:13:41;;;;;;;1.77;1.00;;;;;;;13.59;63.65;96940.03;8285003;28;20200;-66
2021/05/17 08:17:55;;;;;;;3.70;1.83;;;;;;;13.81;63.39;96940.13;8285753;28;20477;-66
2021/05/17 08:21:58;;;;;;;6.10;2.80;;;;;;;13.58;63.56;96946.19;8285482;28;20202;-65
2021/05/17 08:26:01;;;;;;;1.93;0.87;;;;;;;13.56;63.69;96940.28;8285498;28;20259;-66
2021/05/17 08:30:07;;;;;;;5.50;1.20;;;;;;;13.54;64.38;96937.78;8285371;28;20268;-66
2021/05/17 08:34:10;;;;;;;3.73;1.20;;;;;;;13.73;63.96;96936.41;8285102;28;20201;-66
2021/05/17 08:38:13;;;;;;;2.37;1.30;;;;;;;14.23;63.13;96935.25;8284651;28;20484;-66
2021/05/17 08:42:15;;;;;;;2.10;0.97;;;;;;;14.21;63.51;96934.53;8284887;28;20201;-65
2021/05/17 08:46:19;;;;;;;1.80;0.87;;;;;;;15.62;61.86;96933.13;8284704;28;20333;-75
2021/05/17 08:50:22;;;;;;;3.10;1.00;;;;;;;16.24;59.75;96938.56;8285012;28;20512;-75
2021/05/17 08:54:25;;;;;;;2.30;1.17;;;;;;;16.09;59.53;96937.19;8284831;28;20209;-75
2021/05/17 08:58:27;;;;;;;2.23;1.20;;;;;;;16.65;57.84;96939.44;8286286;28;20224;-75
2021/05/17 09:02:31;;;;;;;5.43;0.93;;;;;;;16.49;59.72;96934.69;8283891;28;20200;-75
2021/05/17 09:06:38;;;;;;;3.80;1.00;;;;;;;16.34;59.52;96931.59;8284169;28;20249;-74
2021/05/17 09:10:41;;;;;;;3.20;1.07;;;;;;;16.06;59.33;96932.25;8284304;28;20237;-74
2021/05/17 09:14:43;;;;;;;2.00;1.07;;;;;;;15.96;60.55;96932.19;8284349;28;20202;-75
2021/05/17 09:18:52;;;;;;;4.30;2.10;;;;;;;15.54;58.52;96939.94;8284624;28;20504;-74
2021/05/17 09:23:21;;;;;;;2.67;1.20;;;;;;;15.18;57.96;96947.13;8284384;28;20504;-74
2021/05/17 09:27:28;;;;;;;1.63;0.80;;;;;;;15.06;60.37;96948.94;8284323;28;20555;-75
2021/05/17 09:31:31;;;;;;;2.10;1.03;;;;;;;16.17;56.96;96942.63;8284049;28;20413;-75
2021/05/17 09:35:34;;;;;;;2.53;1.20;;;;;;;17.10;55.30;96946.94;8284196;28;20600;-76
2021/05/17 09:39:38;;;;;;;3.47;1.37;;;;;;;16.65;58.76;96946.47;8283895;28;20201;-73
2021/05/17 09:43:41;;;;;;;2.33;0.90;;;;;;;15.89;56.35;96957.13;8283917;28;20202;-75
2021/05/17 09:47:55;;;;;;;1.37;0.90;;;;;;;16.20;55.82;96952.78;8281427;28;20232;-75
2021/05/17 09:52:16;;;;;;;1.60;1.00;;;;;;;16.52;53.69;96957.13;8288813;28;20205;-75
2021/05/17 09:56:22;;;;;;;2.27;1.00;;;;;;;16.13;54.01;96947.28;8290000;28;20213;-80
2021/05/17 10:00:26;;;;;;;2.73;1.37;;;;;;;17.70;51.55;96953.91;8308778;28;20467;-76
2021/05/17 10:04:30;;;;;;;2.50;1.40;;;;;;;17.91;50.59;96949.38;8322191;28;20224;-72
2021/05/17 10:08:34;;;;;;;2.77;1.00;;;;;;;16.85;50.19;96947.38;8322081;28;20237;-74
2021/05/17 10:12:37;;;;;;;1.50;0.67;;;;;;;16.49;50.84;96950.38;8290418;28;20201;-72
2021/05/17 10:16:42;;;;;;;14.77;1.70;;;;;;;16.72;52.09;96955.44;8289214;28;20280;-75
2021/05/17 10:20:44;;;;;;;2.00;0.80;;;;;;;17.92;49.06;96942.38;8289439;28;20208;-74
2021/05/17 10:24:48;;;;;;;2.57;0.73;;;;;;;18.44;47.68;96939.38;8289529;28;20388;-73
2021/05/17 10:28:53;;;;;;;3.40;0.80;;;;;;;19.11;45.01;96943.56;8288934;28;20610;-74
2021/05/17 10:32:57;;;;;;;4.37;0.73;;;;;;;18.14;45.38;96938.59;8289217;28;20206;-66
2021/05/17 10:37:02;;;;;;;7.07;1.33;;;;;;;17.57;47.37;96941.91;8289226;28;20258;-67
2021/05/17 10:41:25;;;;;;;4.40;1.00;;;;;;;17.47;44.73;96938.44;8288636;28;20209;-67
2021/05/17 10:50:10;;;;;;;1.30;0.60;;;;;;;19.43;41.91;96936.19;8280631;28;20209;-67
2021/05/17 10:54:21;;;;;;;1.50;0.70;;;;;;;18.40;41.25;96936.22;8288369;28;20202;-66
2021/05/17 11:03:13;;;;;;;6.10;0.83;;;;;;;17.86;42.75;96930.66;8286869;28;20393;-66
2021/05/17 11:07:19;;;;;;;3.37;0.67;;;;;;;17.28;43.91;96948.88;8287748;28;20246;-66
2021/05/17 11:11:22;;;;;;;1.63;0.80;;;;;;;17.38;44.30;96944.50;8288172;28;20483;-67
2021/05/17 11:15:27;;;;;;;2.63;0.77;;;;;;;17.47;45.04;96940.25;8288025;28;20208;-65
2021/05/17 11:19:30;;;;;;;2.80;1.97;;;;;;;17.12;44.47;96947.63;8287585;28;20205;-66
2021/05/17 11:23:56;;;;;;;2.40;1.00;;;;;;;17.14;43.68;96957.97;8286681;28;20197;-66
2021/05/17 11:27:58;;;;;;;2.83;1.10;;;;;;;17.35;43.63;96956.06;8287572;28;20567;-66
2021/05/17 11:32:12;;;;;;;2.23;0.80;;;;;;;17.27;43.50;96960.31;8287379;28;20213;-66
2021/05/17 11:36:16;;;;;;;2.03;0.90;;;;;;;16.87;43.38;96964.63;8287501;28;20509;-66
2021/05/17 11:40:26;;;;;;;1.57;0.90;;;;;;;17.09;42.77;96960.13;8286786;28;20212;-65
2021/05/17 11:44:32;;;;;;;4.33;0.77;;;;;;;17.12;43.48;96968.53;8287055;28;20212;-65
2021/05/17 11:48:36;;;;;;;2.30;0.60;;;;;;;17.47;43.44;96972.47;8286418;28;20558;-66
2021/05/17 11:52:38;;;;;;;1.43;0.60;;;;;;;17.42;40.84;96966.84;8286410;28;20201;-66
2021/05/17 11:56:42;;;;;;;2.93;0.80;;;;;;;17.88;41.82;96960.16;8286369;28;20212;-66
2021/05/17 12:00:44;;;;;;;1.83;0.90;;;;;;;18.36;41.45;96956.63;8285363;28;20384;-66
2021/05/17 12:04:47;;;;;;;2.30;0.80;;;;;;;18.74;41.33;96952.25;8286181;28;20555;-66
2021/05/17 12:08:50;;;;;;;1.50;0.53;;;;;;;18.17;42.71;96952.25;8285807;28;20240;-67
2021/05/17 12:12:53;;;;;;;1.43;0.40;;;;;;;17.79;41.77;96955.69;8284434;28;20201;-66
2021/05/17 12:17:00;;;;;;;1.23;0.30;;;;;;;17.34;42.35;96951.81;8281613;28;20312;-66
2021/05/17 12:21:12;;;;;;;1.57;0.50;;;;;;;17.58;42.69;96953.22;8285074;28;20197;-66
2021/05/17 12:25:16;;;;;;;0.87;0.53;;;;;;;18.20;41.22;96942.47;8285046;28;20381;-66
2021/05/17 12:29:19;;;;;;;1.50;0.33;;;;;;;18.99;40.19;96941.28;8285747;28;20225;-65
2021/05/17 12:33:23;;;;;;;0.80;0.30;;;;;;;18.81;39.48;96938.56;8285257;28;20202;-65
2021/05/17 12:37:30;;;;;;;5.27;0.40;;;;;;;18.80;37.63;96947.41;8285935;28;20206;-65
2021/05/17 12:41:37;;;;;;;2.53;0.50;;;;;;;18.89;37.48;96952.63;8285994;28;20209;-66
2021/05/17 12:45:42;;;;;;;0.80;0.30;;;;;;;19.12;37.85;96947.00;8285530;28;20201;-65
2021/05/17 12:49:46;;;;;;;0.33;0.30;;;;;;;18.58;38.33;96946.78;8284541;28;20226;-65
2021/05/17 12:53:51;;;;;;;0.50;0.20;;;;;;;18.39;40.06;96942.44;8285076;28;20224;-66
2021/05/17 12:57:56;;;;;;;0.50;0.20;;;;;;;17.97;39.64;96953.22;8284630;28;20535;-66
2021/05/17 13:02:09;;;;;;;1.13;0.20;;;;;;;19.07;37.07;96954.47;8301155;28;20194;-66
2021/05/17 13:06:18;;;;;;;0.97;0.50;;;;;;;19.77;37.22;96959.19;8282993;28;20430;-66
2021/05/17 13:10:22;;;;;;;0.67;0.37;;;;;;;19.06;36.19;96966.78;8283428;28;20187;-66
2021/05/17 13:14:25;;;;;;;3.07;0.20;;;;;;;18.47;36.20;96962.69;8283400;28;20206;-67
2021/05/17 13:18:31;;;;;;;4.80;0.30;;;;;;;18.42;36.74;96973.59;8283489;28;20197;-66
2021/05/17 13:23:04;;;;;;;0.63;0.20;;;;;;;18.98;36.06;96973.72;8283729;28;20256;-66
2021/05/17 13:31:42;;;;;;;2.97;0.30;;;;;;;19.62;33.45;96972.81;8290227;28;20213;-68
2021/05/17 13:35:45;;;;;;;1.07;0.30;;;;;;;19.64;35.21;96970.03;8290721;28;20405;-68
2021/05/17 13:39:47;;;;;;;1.67;0.40;;;;;;;19.38;34.94;96962.91;8289966;28;20381;-68
2021/05/17 13:43:51;;;;;;;1.87;0.40;;;;;;;19.91;35.26;96972.63;8290538;28;20202;-70
2021/05/17 13:47:53;;;;;;;1.27;0.50;;;;;;;19.73;35.72;96972.63;8290654;28;20474;-68
2021/05/17 13:51:55;;;;;;;0.70;0.40;;;;;;;19.38;36.32;96962.03;8290185;28;20201;-68
2021/05/17 13:55:58;;;;;;;3.30;0.60;;;;;;;19.25;35.81;96971.09;8290087;28;20210;-69
2021/05/17 14:00:01;;;;;;;1.57;0.43;;;;;;;19.26;35.88;96964.88;8290137;28;20210;-69
2021/05/17 14:04:04;;;;;;;3.40;0.77;;;;;;;19.66;35.49;96971.53;8290077;28;20205;-70
2021/05/17 14:08:06;;;;;;;1.43;0.60;;;;;;;18.82;37.56;96971.72;8289998;28;20414;-68
2021/05/17 14:12:09;;;;;;;2.10;0.63;;;;;;;19.10;38.31;96970.75;8289751;28;20223;-69
2021/05/17 14:16:12;;;;;;;1.77;0.73;;;;;;;19.29;37.24;96974.28;8289921;28;20395;-70
2021/05/17 14:20:16;;;;;;;3.57;0.40;;;;;;;19.61;38.02;96979.03;8289273;28;20209;-69
2021/05/17 14:24:18;;;;;;;2.73;0.60;;;;;;;18.86;38.85;96987.00;8289475;28;20501;-69
2021/05/17 14:28:21;;;;;;;1.27;0.67;;;;;;;18.60;39.73;96997.31;8289418;28;20230;-69
2021/05/17 14:32:24;;;;;;;2.70;0.60;;;;;;;18.26;40.52;97004.78;8289315;28;20208;-69
2021/05/17 14:36:26;;;;;;;2.97;0.80;;;;;;;17.68;41.26;97010.81;8288320;28;20202;-69
2021/05/17 14:40:29;;;;;;;3.90;0.83;;;;;;;17.61;42.67;97012.31;8288550;28;20209;-69
2021/05/17 14:44:32;;;;;;;3.53;1.17;;;;;;;17.37;44.00;97013.50;8288440;28;20202;-68
2021/05/17 14:48:35;;;;;;;1.50;0.60;;;;;;;17.46;43.70;97025.78;8288519;28;20229;-69
2021/05/17 14:52:38;;;;;;;2.10;0.80;;;;;;;18.00;42.81;97015.84;8288738;28;20424;-69
2021/05/17 14:56:41;;;;;;;1.67;0.50;;;;;;;18.10;41.83;97016.66;8288653;28;20210;-66
2021/05/17 15:00:45;;;;;;;3.50;0.70;;;;;;;18.62;40.83;97016.34;8288492;28;20269;-66
2021/05/17 15:04:48;;;;;;;1.23;0.60;;;;;;;18.47;41.29;97018.56;8288003;28;20412;-67
2021/05/17 15:08:53;;;;;;;0.53;0.50;;;;;;;18.63;40.83;97017.97;8287835;28;20241;-66
2021/05/17 15:12:56;;;;;;;1.10;0.53;;;;;;;18.83;40.94;97021.41;8287788;28;20272;-67
2021/05/17 15:16:59;;;;;;;1.33;0.40;;;;;;;18.74;39.84;97017.81;8287644;28;20214;-66
2021/05/17 15:21:03;;;;;;;1.43;0.40;;;;;;;18.72;39.48;97025.00;8287807;28;20202;-66
2021/05/17 15:25:07;;;;;;;1.57;0.67;;;;;;;18.29;40.72;97025.47;8286974;28;20489;-67
2021/05/17 15:29:10;;;;;;;2.77;0.50;;;;;;;18.34;40.92;97025.91;8287245;28;20233;-66
2021/05/17 15:33:13;;;;;;;0.87;0.40;;;;;;;18.07;40.39;97037.91;8287390;28;20201;-66
2021/05/17 15:37:17;;;;;;;0.80;0.50;;;;;;;18.46;39.73;97034.44;8287283;28;20209;-66
2021/05/17 15:41:20;;;;;;;1.33;0.60;;;;;;;18.53;39.01;97036.34;8287294;28;20503;-67
2021/05/17 15:45:24;;;;;;;1.47;0.50;;;;;;;18.63;38.80;97031.09;8254695;28;20284;-65
2021/05/17 15:49:26;;;;;;;1.23;0.33;;;;;;;18.72;38.86;97029.41;8284816;28;20268;-66
2021/05/17 15:53:32;;;;;;;1.43;0.40;;;;;;;18.31;37.25;97045.31;8285290;28;20206;-66
2021/05/17 15:57:34;;;;;;;0.70;0.40;;;;;;;18.22;37.57;97054.03;8284493;28;20448;-71
2021/05/17 16:01:39;;;;;;;1.10;0.30;;;;;;;18.13;38.53;97047.00;8285721;28;20491;-70
2021/05/17 16:05:42;;;;;;;1.30;0.40;;;;;;;17.97;39.63;97045.75;8286463;28;20392;-70
2021/05/17 16:09:46;;;;;;;1.17;0.30;;;;;;;17.76;39.98;97058.09;8285387;28;20439;-70
2021/05/17 16:13:53;;;;;;;3.47;0.50;;;;;;;17.46;40.90;97054.59;8285117;28;20209;-68
2021/05/17 16:18:20;;;;;;;3.07;0.50;;;;;;;17.51;40.56;97070.69;8284521;28;20511;-68
2021/05/17 16:22:22;;;;;;;3.03;0.50;;;;;;;17.71;39.45;97052.44;8283388;28;20205;-70
2021/05/17 16:26:26;;;;;;;1.40;0.40;;;;;;;17.80;39.68;97054.25;8285302;28;20401;-69
2021/05/17 16:30:29;;;;;;;1.47;0.50;;;;;;;17.78;40.03;97049.16;8293940;28;20554;-70
2021/05/17 16:34:31;;;;;;;0.97;0.40;;;;;;;17.56;40.51;97057.22;8285318;28;20205;-70
2021/05/17 16:38:34;;;;;;;0.20;0.20;;;;;;;17.26;41.22;97058.91;8284519;28;20201;-69
2021/05/17 16:42:37;;;;;;;0.47;0.40;;;;;;;17.37;41.27;97058.81;8285081;28;20474;-70
2021/05/17 16:46:40;;;;;;;0.97;0.50;;;;;;;17.64;41.66;97067.84;8283859;28;20256;-69
2021/05/17 16:50:42;;;;;;;1.90;0.57;;;;;;;17.52;41.15;97074.16;8283897;28;20229;-70
2021/05/17 16:54:47;;;;;;;1.47;1.07;;;;;;;17.10;41.57;97082.94;8278636;28;20205;-70
2021/05/17 16:58:51;;;;;;;1.97;0.90;;;;;;;17.03;41.80;97075.75;8281526;28;20496;-69
2021/05/17 17:02:53;;;;;;;1.87;0.50;;;;;;;17.06;41.80;97076.31;8284075;28;20204;-69
2021/05/17 17:06:56;;;;;;;1.33;0.60;;;;;;;17.06;41.90;97093.78;8284375;28;20249;-69
2021/05/17 17:10:59;;;;;;;1.13;0.53;;;;;;;16.76;42.23;97088.38;8284205;28;20268;-69
2021/05/17 17:15:02;;;;;;;1.37;0.43;;;;;;;16.49;43.56;97086.25;8284534;28;20386;-70
2021/05/17 17:19:06;;;;;;;1.47;0.47;;;;;;;16.58;43.74;97095.97;8283907;28;20205;-70
2021/05/17 17:23:12;;;;;;;0.40;0.40;;;;;;;16.56;43.68;97090.03;8315477;28;20247;-69
2021/05/17 17:27:15;;;;;;;0.50;0.40;;;;;;;16.64;43.98;97096.38;8316301;28;20235;-70
2021/05/17 17:31:20;;;;;;;0.60;0.47;;;;;;;16.61;44.08;97106.16;8316780;28;20292;-69
2021/05/17 17:35:23;;;;;;;1.40;0.60;;;;;;;16.45;44.74;97103.16;8316214;28;20208;-69
2021/05/17 17:39:26;;;;;;;1.17;0.50;;;;;;;16.26;45.17;97111.66;8316132;28;20208;-71
2021/05/17 17:43:28;;;;;;;2.63;0.60;;;;;;;16.25;46.04;97119.63;8299044;28;20265;-70
2021/05/17 17:47:31;;;;;;;1.37;0.60;;;;;;;16.10;47.27;97124.28;8284075;28;20225;-71
2021/05/17 17:51:35;;;;;;;1.63;0.50;;;;;;;16.09;48.67;97125.22;8283611;28;20206;-70
2021/05/17 17:55:38;;;;;;;1.50;0.57;;;;;;;16.10;47.64;97122.50;8283511;28;20205;-70
2021/05/17 17:59:40;;;;;;;3.30;0.70;;;;;;;16.11;48.00;97126.78;8283683;28;20212;-70
2021/05/17 18:03:44;;;;;;;0.90;0.57;;;;;;;15.99;47.48;97131.22;8283465;28;20206;-69
2021/05/17 18:07:46;;;;;;;1.03;0.60;;;;;;;15.95;48.03;97135.00;8283404;28;20233;-70
2021/05/17 18:11:50;;;;;;;0.87;0.60;;;;;;;16.00;47.91;97140.69;8286264;28;20224;-71
2021/05/17 18:15:52;;;;;;;18.77;1.70;;;;;;;16.54;49.30;97151.22;8289432;28;20198;-74
2021/05/17 18:19:56;;;;;;;8.33;0.93;;;;;;;16.68;50.14;97148.31;8289298;28;20205;-74
2021/05/17 18:23:59;;;;;;;0.40;0.20;;;;;;;16.41;47.14;97144.38;8289270;28;20202;-72
2021/05/17 18:28:04;;;;;;;3.13;0.47;;;;;;;16.22;47.77;97146.78;8289196;28;20239;-71
2021/05/17 18:32:10;;;;;;;2.37;0.60;;;;;;;16.16;47.88;97162.97;8289027;28;20202;-71
2021/05/17 18:36:14;;;;;;;1.77;0.40;;;;;;;15.89;48.68;97158.16;8277842;28;20194;-71
2021/05/17 18:40:17;;;;;;;0.80;0.40;;;;;;;15.81;48.72;97164.81;8269407;28;20203;-71
2021/05/17 18:48:44;;;;;;;1.07;0.60;;;;;;;15.82;49.28;97182.16;8301013;28;20393;-66
2021/05/17 18:52:48;;;;;;;1.03;0.50;;;;;;;15.72;49.39;97186.38;8321530;28;20186;-66
2021/05/17 18:56:50;;;;;;;1.00;0.40;;;;;;;15.54;51.39;97190.41;8320890;28;20212;-67
2021/05/17 19:00:52;;;;;;;0.70;0.40;;;;;;;15.37;52.36;97189.09;8321049;28;20389;-67
2021/05/17 19:04:57;;;;;;;1.20;0.50;;;;;;;15.43;52.13;97199.88;8320573;28;20307;-66
2021/05/17 19:09:02;;;;;;;1.57;0.60;;;;;;;15.39;52.06;97202.84;8320534;28;20248;-69
2021/05/17 19:13:05;;;;;;;3.00;0.70;;;;;;;15.30;52.72;97206.97;8296110;28;20216;-68
2021/05/17 19:17:08;;;;;;;1.70;0.60;;;;;;;15.27;52.32;97211.59;8286975;28;20208;-66
2021/05/17 19:21:10;;;;;;;1.03;0.50;;;;;;;15.32;52.34;97219.91;8287814;28;20214;-66
2021/05/17 19:25:14;;;;;;;1.00;0.50;;;;;;;15.33;52.13;97216.38;8287412;28;20270;-66
2021/05/17 19:29:16;;;;;;;1.23;0.90;;;;;;;15.26;52.40;97216.00;8287563;28;20417;-66
2021/05/17 19:33:19;;;;;;;3.53;0.60;;;;;;;15.23;52.24;97216.22;8287520;28;20622;-66
2021/05/17 19:37:21;;;;;;;2.90;0.90;;;;;;;15.13;52.52;97217.84;8286404;28;20521;-67
2021/05/17 19:41:27;;;;;;;3.20;0.90;;;;;;;14.90;53.49;97220.38;8286413;28;20479;-66
2021/05/17 19:45:29;;;;;;;1.13;0.50;;;;;;;15.07;53.44;97218.31;8286324;28;20194;-67
2021/05/17 19:49:31;;;;;;;1.30;0.53;;;;;;;15.07;53.56;97216.53;8286735;28;20238;-67